createdAt,value
2019-04-20T00:01:40.775Z,8.73
2019-04-20T00:04:17.017Z,8.38
2019-04-20T00:06:47.815Z,9.03
2019-04-20T00:09:15.933Z,8.03
2019-04-20T00:11:53.486Z,8.95
2019-04-20T00:14:17.263Z,8.45
2019-04-20T00:16:44.085Z,8.35
2019-04-20T00:19:17.363Z,8.88
2019-04-20T00:21:56.421Z,7.55
2019-04-20T00:24:30.129Z,8.58
2019-04-20T00:27:13.687Z,9.25
2019-04-20T00:29:45.266Z,8.88
2019-04-20T00:32:06.403Z,9.43
2019-04-20T00:34:30.477Z,8.95
2019-04-20T00:36:58.142Z,8.10
2019-04-20T00:39:27.854Z,8.80
2019-04-20T00:42:03.772Z,9.23
2019-04-20T00:44:31.756Z,9.35
2019-04-20T00:47:09.585Z,10.15
2019-04-20T00:49:44.549Z,8.23
2019-04-20T00:54:30.535Z,7.97
2019-04-20T00:57:10.483Z,9.35
2019-04-20T00:59:51.742Z,8.65
2019-04-20T01:02:16.827Z,10.05
2019-04-20T01:04:56.492Z,10.20
2019-04-20T01:07:33.116Z,8.95
2019-04-20T01:10:05.394Z,8.65
2019-04-20T01:12:36.821Z,9.48
2019-04-20T01:15:09.903Z,9.38
2019-04-20T01:17:37.893Z,8.25
2019-04-20T01:20:08.894Z,9.08
2019-04-20T01:22:44.351Z,9.33
2019-04-20T01:25:16.897Z,9.08
2019-04-20T01:27:58.942Z,7.50
2019-04-20T01:30:20.945Z,7.60
2019-04-20T01:32:56.326Z,8.50
2019-04-20T01:35:31.637Z,9.30
2019-04-20T01:38:04.200Z,8.98
2019-04-20T01:40:14.848Z,8.63
2019-04-20T01:42:44.590Z,8.63
2019-04-20T01:45:21.723Z,8.35
2019-04-20T01:47:49.399Z,8.40
2019-04-20T01:50:21.016Z,9.23
2019-04-20T01:52:56.530Z,8.80
2019-04-20T01:55:42.576Z,8.85
2019-04-20T01:58:42.249Z,8.48
2019-04-20T02:01:09.701Z,8.88
2019-04-20T02:03:50.504Z,9.05
2019-04-20T02:06:20.399Z,8.70
2019-04-20T02:08:52.898Z,9.73
2019-04-20T02:11:25.467Z,9.43
2019-04-20T02:13:56.248Z,9.55
2019-04-20T02:16:28.624Z,9.30
2019-04-20T02:19:09.059Z,8.48
2019-04-20T02:21:40.894Z,9.15
2019-04-20T02:23:57.949Z,8.68
2019-04-20T02:26:23.993Z,8.88
2019-04-20T02:29:17.609Z,10.88
2019-04-20T02:32:05.048Z,8.78
2019-04-20T02:34:40.142Z,10.08
2019-04-20T02:37:26.777Z,8.98
2019-04-20T02:42:28.225Z,8.85
2019-04-20T02:49:45.001Z,8.80
2019-04-20T02:52:12.385Z,8.75
2019-04-20T02:54:38.223Z,9.03
2019-04-20T02:57:18.074Z,8.75
2019-04-20T03:01:59.033Z,10.13
2019-04-20T03:04:25.693Z,8.43
2019-04-20T03:07:04.147Z,10.53
2019-04-20T03:09:36.191Z,9.88
2019-04-20T03:12:10.653Z,10.18
2019-04-20T03:14:34.874Z,10.20
2019-04-20T03:17:11.621Z,11.50
2019-04-20T03:19:31.264Z,10.15
2019-04-20T03:22:17.124Z,11.38
2019-04-20T03:24:45.424Z,9.30
2019-04-20T03:27:11.098Z,10.13
2019-04-20T03:29:54.967Z,10.30
2019-04-20T03:35:22.625Z,10.80
2019-04-20T03:37:51.006Z,10.80
2019-04-20T03:40:15.290Z,10.60
2019-04-20T03:42:30.881Z,9.93
2019-04-20T03:45:06.169Z,10.80
2019-04-20T03:47:42.577Z,10.13
2019-04-20T03:50:24.441Z,10.85
2019-04-20T03:53:08.370Z,10.10
2019-04-20T03:55:50.134Z,11.20
2019-04-20T03:58:35.157Z,11.43
2019-04-20T04:01:35.888Z,10.40
2019-04-20T04:04:06.708Z,11.20
2019-04-20T04:06:24.184Z,12.00
2019-04-20T04:08:57.610Z,10.63
2019-04-20T04:11:35.281Z,11.08
2019-04-20T04:13:48.438Z,13.00
2019-04-20T04:16:21.584Z,11.05
2019-04-20T04:18:59.153Z,10.78
2019-04-20T04:21:29.638Z,10.78
2019-04-20T04:24:07.239Z,11.90
2019-04-20T04:26:35.962Z,10.20
2019-04-20T04:29:17.322Z,10.00
2019-04-20T04:31:50.721Z,11.05
2019-04-20T04:34:10.761Z,10.28
2019-04-20T04:36:46.171Z,10.63
2019-04-20T04:39:19.224Z,11.35
2019-04-20T04:41:39.722Z,10.28
2019-04-20T04:44:11.193Z,10.15
2019-04-20T04:46:29.215Z,11.25
2019-04-20T04:49:05.331Z,9.88
2019-04-20T04:51:41.736Z,9.70
2019-04-20T04:54:13.100Z,9.50
2019-04-20T04:56:31.937Z,9.90
2019-04-20T04:59:02.369Z,10.00
2019-04-20T05:01:33.653Z,9.13
2019-04-20T05:04:22.850Z,10.25
2019-04-20T05:06:48.528Z,9.80
2019-04-20T05:09:09.035Z,9.83
2019-04-20T05:11:35.562Z,9.23
2019-04-20T05:14:10.058Z,9.05
2019-04-20T05:16:51.307Z,9.50
2019-04-20T05:19:31.964Z,8.15
2019-04-20T05:22:09.293Z,9.13
2019-04-20T05:24:57.119Z,8.95
2019-04-20T05:27:30.067Z,9.18
2019-04-20T05:29:42.949Z,8.65
2019-04-20T05:32:18.023Z,8.18
2019-04-20T05:35:35.518Z,9.28
2019-04-20T05:38:01.253Z,9.40
2019-04-20T05:40:29.303Z,7.95
2019-04-20T05:43:03.199Z,9.13
2019-04-20T05:45:32.347Z,7.47
2019-04-20T05:48:05.163Z,8.43
2019-04-20T05:50:37.974Z,9.30
2019-04-20T05:53:07.724Z,8.28
2019-04-20T05:55:40.206Z,8.38
2019-04-20T05:58:08.938Z,7.17
2019-04-20T06:00:45.896Z,7.75
2019-04-20T06:03:07.390Z,10.03
2019-04-20T06:05:50.247Z,7.55
2019-04-20T06:08:20.466Z,7.15
2019-04-20T06:10:45.185Z,7.62
2019-04-20T06:13:20.497Z,7.55
2019-04-20T06:15:53.994Z,7.22
2019-04-20T06:18:32.701Z,7.95
2019-04-20T06:21:17.219Z,6.45
2019-04-20T06:24:19.267Z,6.30
2019-04-20T06:26:53.996Z,6.20
2019-04-20T06:29:16.315Z,6.15
2019-04-20T06:31:51.905Z,6.40
2019-04-20T06:34:33.382Z,7.35
2019-04-20T06:39:32.592Z,6.00
2019-04-20T06:42:15.161Z,6.42
2019-04-20T06:49:33.242Z,6.37
2019-04-20T06:52:23.433Z,5.00
2019-04-20T06:55:06.967Z,6.20
2019-04-20T06:57:55.080Z,5.47
2019-04-20T07:02:44.223Z,6.03
2019-04-20T07:12:47.651Z,4.70
2019-04-20T07:15:19.843Z,5.20
2019-04-20T07:18:02.778Z,4.97
2019-04-20T07:20:42.727Z,5.05
2019-04-20T07:23:26.554Z,4.20
2019-04-20T07:25:58.585Z,4.67
2019-04-20T07:28:29.121Z,4.60
2019-04-20T07:30:58.450Z,4.05
2019-04-20T07:33:26.737Z,4.00
2019-04-20T07:35:57.040Z,5.20
2019-04-20T07:41:26.325Z,5.10
2019-04-20T07:44:01.713Z,4.42
2019-04-20T07:46:34.788Z,5.15
2019-04-20T07:48:49.170Z,4.70
2019-04-20T07:51:09.175Z,4.60
2019-04-20T07:53:44.119Z,3.75
2019-04-20T07:56:24.412Z,4.17
2019-04-20T07:58:41.377Z,4.75
2019-04-20T08:01:47.472Z,4.00
2019-04-20T08:04:11.827Z,3.25
2019-04-20T08:06:38.131Z,4.80
2019-04-20T08:09:17.181Z,3.80
2019-04-20T08:11:55.443Z,3.72
2019-04-20T08:14:35.715Z,3.50
2019-04-20T08:17:14.089Z,4.10
2019-04-20T08:19:30.162Z,3.87
2019-04-20T08:21:58.672Z,4.20
2019-04-20T08:24:21.553Z,5.45
2019-04-20T08:26:45.415Z,3.95
2019-04-20T08:29:33.868Z,4.47
2019-04-20T08:32:31.221Z,3.58
2019-04-20T08:35:05.653Z,4.97
2019-04-20T08:37:33.175Z,4.62
2019-04-20T08:40:06.970Z,4.40
2019-04-20T08:42:37.883Z,5.05
2019-04-20T08:45:08.340Z,4.08
2019-04-20T08:50:27.115Z,3.58
2019-04-20T08:55:16.762Z,4.12
2019-04-20T08:57:29.286Z,4.20
2019-04-20T09:00:01.503Z,3.92
2019-04-20T09:02:30.454Z,4.28
2019-04-20T09:05:04.848Z,3.40
2019-04-20T09:07:35.205Z,3.33
2019-04-20T09:10:28.154Z,3.62
2019-04-20T09:12:50.634Z,4.00
2019-04-20T09:15:05.879Z,3.20
2019-04-20T09:17:47.488Z,3.75
2019-04-20T09:20:23.074Z,3.20
2019-04-20T09:23:08.209Z,3.22
2019-04-20T09:25:57.733Z,3.27
2019-04-20T09:28:18.744Z,3.33
2019-04-20T09:31:12.237Z,4.00
2019-04-20T09:34:08.833Z,3.87
2019-04-20T09:36:43.239Z,3.92
2019-04-20T09:39:25.682Z,4.35
2019-04-20T09:45:21.906Z,3.87
2019-04-20T09:47:48.238Z,3.90
2019-04-20T09:50:34.851Z,3.95
2019-04-20T09:53:02.379Z,3.40
2019-04-20T09:55:31.219Z,4.35
2019-04-20T09:58:04.910Z,3.85
2019-04-20T10:00:59.476Z,3.92
2019-04-20T10:06:43.593Z,5.45
2019-04-20T10:09:15.788Z,4.50
2019-04-20T10:11:48.741Z,4.10
2019-04-20T10:14:20.136Z,4.60
2019-04-20T10:16:53.810Z,4.10
2019-04-20T10:19:41.846Z,3.95
2019-04-20T10:22:12.904Z,4.05
2019-04-20T10:24:45.797Z,4.55
2019-04-20T10:27:47.463Z,4.45
2019-04-20T10:33:08.084Z,3.72
2019-04-20T10:35:37.571Z,3.05
2019-04-20T10:38:34.300Z,3.30
2019-04-20T10:41:12.655Z,4.55
2019-04-20T10:43:35.072Z,3.90
2019-04-20T10:46:11.094Z,3.75
2019-04-20T10:48:47.356Z,3.10
2019-04-20T10:51:12.823Z,3.45
2019-04-20T10:53:44.420Z,3.20
2019-04-20T10:56:15.818Z,3.37
2019-04-20T10:58:45.803Z,5.25
2019-04-20T11:01:15.701Z,4.15
2019-04-20T11:03:45.026Z,4.08
2019-04-20T11:06:14.576Z,3.62
2019-04-20T11:08:44.582Z,4.90
2019-04-20T11:11:21.507Z,4.78
2019-04-20T11:13:45.621Z,4.70
2019-04-20T11:16:14.801Z,4.40
2019-04-20T11:18:45.229Z,4.70
2019-04-20T11:21:15.428Z,6.40
2019-04-20T11:23:44.760Z,6.10
2019-04-20T11:26:14.109Z,5.65
2019-04-20T11:28:44.150Z,3.85
2019-04-20T11:31:14.407Z,4.03
2019-04-20T11:33:43.402Z,4.10
2019-04-20T11:36:12.937Z,3.58
2019-04-20T11:38:42.813Z,3.15
2019-04-20T11:41:20.950Z,3.52
2019-04-20T11:43:44.030Z,3.50
2019-04-20T11:46:14.413Z,4.08
2019-04-20T11:48:43.569Z,3.80
2019-04-20T11:51:13.763Z,3.72
2019-04-20T11:53:42.872Z,4.33
2019-04-20T11:56:15.991Z,3.52
2019-04-20T11:58:42.954Z,2.77
2019-04-20T12:01:39.252Z,3.17
2019-04-20T12:04:09.306Z,3.25
2019-04-20T12:06:30.997Z,3.40
2019-04-20T12:09:10.813Z,3.47
2019-04-20T12:11:53.464Z,3.10
2019-04-20T12:14:12.477Z,3.10
2019-04-20T12:16:41.717Z,3.83
2019-04-20T12:19:12.698Z,3.08
2019-04-20T12:21:42.172Z,3.22
2019-04-20T12:24:12.235Z,3.17
2019-04-20T12:26:41.200Z,3.40
2019-04-20T12:29:10.017Z,3.95
2019-04-20T12:31:39.794Z,3.55
2019-04-20T12:34:08.858Z,2.77
2019-04-20T12:36:39.396Z,2.70
2019-04-20T12:39:10.976Z,2.55
2019-04-20T12:41:47.142Z,3.00
2019-04-20T12:44:12.142Z,3.90
2019-04-20T12:46:41.499Z,3.10
2019-04-20T12:49:11.640Z,3.30
2019-04-20T12:51:48.706Z,2.67
2019-04-20T12:54:11.280Z,2.95
2019-04-20T12:56:40.479Z,2.60
2019-04-20T12:59:09.697Z,2.72
2019-04-20T13:01:39.559Z,2.20
2019-04-20T13:04:09.462Z,2.58
2019-04-20T13:06:39.193Z,2.47
2019-04-20T13:09:12.742Z,2.45
2019-04-20T13:11:56.837Z,2.33
2019-04-20T13:14:56.521Z,2.35
2019-04-20T13:17:26.236Z,2.80
2019-04-20T13:19:55.356Z,2.72
2019-04-20T13:22:25.346Z,3.00
2019-04-20T13:24:54.950Z,3.10
2019-04-20T13:27:25.043Z,3.02
2019-04-20T13:29:54.699Z,3.45
2019-04-20T13:32:25.698Z,2.65
2019-04-20T13:34:54.613Z,2.00
2019-04-20T13:37:24.368Z,2.80
2019-04-20T13:39:53.343Z,2.52
2019-04-20T13:42:26.204Z,2.25
2019-04-20T13:44:54.912Z,2.42
2019-04-20T13:50:53.747Z,2.95
2019-04-20T13:54:13.235Z,2.90
2019-04-20T13:56:35.981Z,2.70
2019-04-20T13:59:19.627Z,2.75
2019-04-20T14:01:53.363Z,3.52
2019-04-20T14:04:24.691Z,3.50
2019-04-20T14:06:55.498Z,4.30
2019-04-20T14:09:25.613Z,3.20
2019-04-20T14:11:55.110Z,3.15
2019-04-20T14:14:25.317Z,3.25
2019-04-20T14:16:54.801Z,3.22
2019-04-20T14:19:25.019Z,3.22
2019-04-20T14:21:54.284Z,3.15
2019-04-20T14:24:24.687Z,2.15
2019-04-20T14:26:54.791Z,2.50
2019-04-20T14:29:25.079Z,2.92
2019-04-20T14:31:55.578Z,2.67
2019-04-20T14:34:24.734Z,2.20
2019-04-20T14:36:54.864Z,1.72
2019-04-20T14:39:24.566Z,1.60
2019-04-20T14:41:54.111Z,1.85
2019-04-20T14:44:23.706Z,2.05
2019-04-20T14:46:53.733Z,1.85
2019-04-20T14:49:22.982Z,2.08
2019-04-20T14:51:58.085Z,3.58
2019-04-20T14:54:27.652Z,3.05
2019-04-20T14:56:59.177Z,2.52
2019-04-20T14:59:31.979Z,2.60
2019-04-20T15:02:30.152Z,3.17
2019-04-20T15:05:01.120Z,2.15
2019-04-20T15:07:30.936Z,3.20
2019-04-20T15:10:04.801Z,2.67
2019-04-20T15:12:41.950Z,2.58
2019-04-20T15:15:08.330Z,2.50
2019-04-20T15:17:48.018Z,2.80
2019-04-20T15:20:35.247Z,2.70
2019-04-20T15:23:11.766Z,2.20
2019-04-20T15:25:40.653Z,2.42
2019-04-20T15:28:10.398Z,2.27
2019-04-20T15:30:40.375Z,2.50
2019-04-20T15:33:09.382Z,2.33
2019-04-20T15:35:38.422Z,3.60
2019-04-20T15:38:08.886Z,2.42
2019-04-20T15:40:39.362Z,2.27
2019-04-20T15:43:14.426Z,2.70
2019-04-20T15:45:41.130Z,2.52
2019-04-20T15:48:10.206Z,2.33
2019-04-20T15:50:40.031Z,3.02
2019-04-20T15:53:11.239Z,3.02
2019-04-20T15:55:42.015Z,3.25
2019-04-20T15:58:12.207Z,3.08
2019-04-20T16:00:42.538Z,3.05
2019-04-20T16:03:15.313Z,3.33
2019-04-20T16:05:47.551Z,3.17
2019-04-20T16:08:23.772Z,3.98
2019-04-20T16:10:53.142Z,2.52
2019-04-20T16:13:29.114Z,3.45
2019-04-20T16:15:53.832Z,3.75
2019-04-20T16:18:23.058Z,3.47
2019-04-20T16:21:00.446Z,4.05
2019-04-20T16:23:22.827Z,3.62
2019-04-20T16:26:00.107Z,3.27
2019-04-20T16:28:31.940Z,4.22
2019-04-20T16:31:01.460Z,4.05
2019-04-20T16:33:30.604Z,4.70
2019-04-20T16:36:00.637Z,4.53
2019-04-20T16:38:30.592Z,4.63
2019-04-20T16:41:00.034Z,4.50
2019-04-20T16:43:32.840Z,3.97
2019-04-20T16:45:59.514Z,4.17
2019-04-20T16:48:28.354Z,4.50
2019-04-20T16:50:58.475Z,5.10
2019-04-20T16:53:28.548Z,4.25
2019-04-20T16:55:58.856Z,5.30
2019-04-20T16:58:28.140Z,4.78
2019-04-20T17:00:57.008Z,4.80
2019-04-20T17:03:39.908Z,4.70
2019-04-20T17:05:56.372Z,5.30
2019-04-20T17:08:25.243Z,4.90
2019-04-20T17:10:54.262Z,4.30
2019-04-20T17:13:34.056Z,4.83
2019-04-20T17:15:53.681Z,4.73
2019-04-20T17:18:23.568Z,5.50
2019-04-20T17:20:53.422Z,6.13
2019-04-20T17:23:23.504Z,6.62
2019-04-20T17:25:52.834Z,6.78
2019-04-20T17:28:40.774Z,6.45
2019-04-20T17:31:29.349Z,5.47
2019-04-20T17:34:17.504Z,5.50
2019-04-20T17:36:35.383Z,6.85
2019-04-20T17:39:08.658Z,4.80
2019-04-20T17:41:59.667Z,4.92
2019-04-20T17:44:24.718Z,5.72
2019-04-20T17:46:48.021Z,6.08
2019-04-20T17:49:19.474Z,6.85
2019-04-20T17:51:59.242Z,6.83
2019-04-20T17:54:22.254Z,5.65
2019-04-20T17:56:52.190Z,6.60
2019-04-20T17:59:22.209Z,6.42
2019-04-20T18:02:21.752Z,6.80
2019-04-20T18:05:09.783Z,8.38
2019-04-20T18:07:35.463Z,9.15
2019-04-20T18:10:06.665Z,9.73
2019-04-20T18:12:26.765Z,8.95
2019-04-20T18:15:00.791Z,9.33
2019-04-20T18:18:07.282Z,10.10
2019-04-20T18:20:28.335Z,10.13
2019-04-20T18:22:58.812Z,11.40
2019-04-20T18:25:55.228Z,11.22
2019-04-20T18:28:13.569Z,11.50
2019-04-20T18:30:43.638Z,11.22
2019-04-20T18:33:07.372Z,10.13
2019-04-20T18:35:41.243Z,11.25
2019-04-20T18:38:11.547Z,10.70
2019-04-20T18:40:48.403Z,11.57
2019-04-20T18:43:14.989Z,10.85
2019-04-20T18:45:58.489Z,11.15
2019-04-20T18:48:33.518Z,11.65
2019-04-20T18:50:43.554Z,11.22
2019-04-20T18:53:19.215Z,11.28
2019-04-20T18:55:48.212Z,11.78
2019-04-20T18:58:13.336Z,14.00
2019-04-20T19:00:47.102Z,13.50
2019-04-20T19:03:21.503Z,13.08
2019-04-20T19:05:45.011Z,13.93
2019-04-20T19:08:15.780Z,14.05
2019-04-20T19:11:00.615Z,13.60
2019-04-20T19:13:43.459Z,16.55
2019-04-20T19:16:42.027Z,19.60
2019-04-20T19:19:23.483Z,21.10
2019-04-20T19:21:41.363Z,21.20
2019-04-20T19:24:13.299Z,20.02
2019-04-20T19:26:44.982Z,20.15
2019-04-20T19:29:22.139Z,21.35
2019-04-20T19:32:05.655Z,19.35
2019-04-20T19:34:26.617Z,21.55
2019-04-20T19:37:00.094Z,18.40
2019-04-20T19:39:31.235Z,19.42
2019-04-20T19:41:54.054Z,18.90
2019-04-20T19:44:42.063Z,18.75
2019-04-20T19:47:41.784Z,18.07
2019-04-20T19:50:18.288Z,15.53
2019-04-20T19:53:05.688Z,17.07
2019-04-20T19:55:25.850Z,17.02
2019-04-20T19:57:56.519Z,16.15
2019-04-20T20:00:11.529Z,15.05
2019-04-20T20:02:46.047Z,15.75
2019-04-20T20:05:16.279Z,14.30
2019-04-20T20:07:50.833Z,15.83
2019-04-20T20:10:40.516Z,16.20
2019-04-20T20:13:08.245Z,18.60
2019-04-20T20:15:39.985Z,17.25
2019-04-20T20:18:23.147Z,16.27
2019-04-20T20:21:01.791Z,18.48
2019-04-20T20:23:18.251Z,18.70
2019-04-20T20:25:49.659Z,18.48
2019-04-20T20:28:31.130Z,19.30
2019-04-20T20:31:02.167Z,18.07
2019-04-20T20:33:41.094Z,18.45
2019-04-20T20:39:38.399Z,19.02
2019-04-20T20:42:20.200Z,20.55
2019-04-20T20:44:45.821Z,20.20
2019-04-20T20:48:12.081Z,20.27
2019-04-20T20:51:12.491Z,19.12
2019-04-20T20:53:40.005Z,20.17
2019-04-20T20:56:06.377Z,18.87
2019-04-20T20:58:43.858Z,18.07
2019-04-20T21:01:06.787Z,17.57
2019-04-20T21:03:34.710Z,17.85
2019-04-20T21:06:00.004Z,17.62
2019-04-20T21:08:29.370Z,20.97
2019-04-20T21:10:58.262Z,20.02
2019-04-20T21:13:34.477Z,19.40
2019-04-20T21:16:03.526Z,21.73
2019-04-20T21:18:47.268Z,20.00
2019-04-20T21:21:17.209Z,20.92
2019-04-20T21:23:42.809Z,20.70
2019-04-20T21:26:17.803Z,19.37
2019-04-20T21:28:44.039Z,20.32
2019-04-20T21:31:21.690Z,19.85
2019-04-20T21:33:47.032Z,19.02
2019-04-20T21:36:21.187Z,21.90
2019-04-20T21:38:48.682Z,20.08
2019-04-20T21:41:23.872Z,20.23
2019-04-20T21:43:52.192Z,20.92
2019-04-20T21:46:22.725Z,19.23
2019-04-20T21:49:05.586Z,19.90
2019-04-20T21:51:37.309Z,19.67
2019-04-20T21:53:58.726Z,19.17
2019-04-20T21:56:28.077Z,19.30
2019-04-20T21:59:01.098Z,19.07
2019-04-20T22:02:08.794Z,18.20
2019-04-20T22:04:31.308Z,19.12
2019-04-20T22:07:02.444Z,19.40
2019-04-20T22:09:40.259Z,18.55
2019-04-20T22:12:05.748Z,16.15
2019-04-20T22:14:35.664Z,20.10
2019-04-20T22:20:27.210Z,19.05
2019-04-20T22:26:45.633Z,19.20
2019-04-20T22:29:02.949Z,20.17
2019-04-20T22:31:32.114Z,21.85
2019-04-20T22:34:10.336Z,19.70
2019-04-20T22:36:58.053Z,20.43
2019-04-20T22:39:35.577Z,20.90
2019-04-20T22:42:07.402Z,19.17
2019-04-20T22:44:34.211Z,21.27
2019-04-20T22:47:05.437Z,22.05
2019-04-20T22:49:48.606Z,20.72
2019-04-20T22:52:27.799Z,21.37
2019-04-20T22:54:54.352Z,21.68
2019-04-20T22:57:29.753Z,21.97
2019-04-20T22:59:50.507Z,20.88
2019-04-20T23:02:13.508Z,21.90
2019-04-20T23:04:42.762Z,20.02
2019-04-20T23:07:12.838Z,21.05
2019-04-20T23:09:49.107Z,21.10
2019-04-20T23:12:17.553Z,20.20
2019-04-20T23:14:44.925Z,19.37
2019-04-20T23:17:18.369Z,19.77
2019-04-20T23:19:52.871Z,21.80
2019-04-20T23:22:21.098Z,23.40
2019-04-20T23:24:53.182Z,21.90
2019-04-20T23:27:26.360Z,22.65
2019-04-20T23:29:55.141Z,22.67
2019-04-20T23:32:27.972Z,21.90
2019-04-20T23:35:03.483Z,21.70
2019-04-20T23:37:31.185Z,23.60
2019-04-20T23:39:57.941Z,23.50
2019-04-20T23:42:38.504Z,21.70
2019-04-20T23:45:35.538Z,22.27
2019-04-20T23:48:05.350Z,22.17
2019-04-20T23:50:50.697Z,21.95
2019-04-20T23:53:24.524Z,22.20
2019-04-20T23:55:45.737Z,22.22
2019-04-20T23:58:24.357Z,22.82
